Time;durP1;ratioP1;P1;durP2;ratioP2;P2;SDS_P1;SDS_P2;PMS_P1;PMS_P2;Temp;Humidity;BMP_temperature;BMP_pressure;BME280_temperature;BME280_humidity;BME280_pressure;Samples;Min_cycle;Max_cycle;Signal;HPM_P1;HPM_P2
2024/02/27 00:02:23;;;;;;;8.55;5.40;;;;;;;9.08;68.93;95722.16;4918954;29;20424;-81
2024/02/27 00:04:51;;;;;;;5.97;5.30;;;;;;;9.02;67.25;95725.53;4918479;29;20060;-80
2024/02/27 00:07:19;;;;;;;7.20;5.20;;;;;;;8.96;66.74;95720.28;4918352;29;20560;-80
2024/02/27 00:09:47;;;;;;;7.05;5.40;;;;;;;8.93;68.98;95723.28;4918503;29;20505;-80
2024/02/27 00:12:15;;;;;;;6.70;4.97;;;;;;;8.91;67.27;95727.88;4918850;29;20052;-80
2024/02/27 00:14:42;;;;;;;7.18;5.57;;;;;;;8.85;66.29;95725.06;4917769;29;20052;-80
2024/02/27 00:17:13;;;;;;;7.93;5.88;;;;;;;8.80;65.97;95729.22;4918724;29;20052;-80
2024/02/27 00:19:40;;;;;;;7.28;5.72;;;;;;;8.76;65.77;95741.00;4918508;29;20052;-80
2024/02/27 00:22:08;;;;;;;7.47;5.82;;;;;;;8.74;65.67;95741.19;4918450;29;20063;-80
2024/02/27 00:24:36;;;;;;;8.00;5.57;;;;;;;8.74;66.27;95737.78;4917934;29;20083;-80
2024/02/27 00:27:04;;;;;;;7.82;6.05;;;;;;;8.74;65.89;95745.59;4917924;29;20059;-79
2024/02/27 00:29:33;;;;;;;7.00;5.30;;;;;;;8.73;67.20;95749.19;4918377;29;20067;-80
2024/02/27 00:32:01;;;;;;;7.03;5.57;;;;;;;8.73;66.14;95754.41;4918059;29;20052;-80
2024/02/27 00:34:30;;;;;;;7.65;5.47;;;;;;;8.71;65.30;95753.78;4917474;29;20477;-80
2024/02/27 00:36:58;;;;;;;8.52;5.32;;;;;;;8.68;64.74;95749.78;4917672;29;20071;-81
2024/02/27 00:39:26;;;;;;;7.43;5.47;;;;;;;8.67;64.57;95745.53;4917794;29;20096;-80
2024/02/27 00:41:57;;;;;;;8.05;5.00;;;;;;;8.65;64.44;95753.53;4917954;29;20048;-80
2024/02/27 00:44:24;;;;;;;6.95;4.95;;;;;;;8.62;64.10;95756.53;4917632;29;20052;-80
2024/02/27 00:46:52;;;;;;;7.00;5.22;;;;;;;8.60;64.09;95753.31;4917486;29;20567;-79
2024/02/27 00:49:20;;;;;;;7.80;5.68;;;;;;;8.59;64.18;95756.91;4917265;29;20508;-80
2024/02/27 00:51:49;;;;;;;8.27;6.05;;;;;;;8.55;64.02;95760.88;4917453;29;20519;-80
2024/02/27 00:54:17;;;;;;;7.78;5.90;;;;;;;8.52;64.35;95766.44;4917221;29;20569;-80
2024/02/27 00:56:44;;;;;;;7.68;5.85;;;;;;;8.51;64.32;95775.25;4917525;29;20048;-80
2024/02/27 00:59:12;;;;;;;9.15;6.03;;;;;;;8.53;66.44;95778.47;4929854;23;20044;-76
2024/02/27 01:01:39;;;;;;;9.18;6.00;;;;;;;8.58;65.63;95783.88;4917333;29;20044;-75
2024/02/27 01:04:07;;;;;;;8.57;6.32;;;;;;;8.60;65.77;95783.69;4917096;29;20056;-76
2024/02/27 01:06:35;;;;;;;7.95;6.45;;;;;;;8.60;64.98;95783.69;4916554;29;20123;-76
2024/02/27 01:09:04;;;;;;;7.57;6.13;;;;;;;8.56;63.45;95790.28;4917515;29;20083;-76
2024/02/27 01:11:31;;;;;;;9.30;6.50;;;;;;;8.52;64.61;95783.84;4916833;29;20052;-76
2024/02/27 01:13:59;;;;;;;8.50;5.97;;;;;;;8.48;64.08;95788.59;4916825;29;20500;-75
2024/02/27 01:16:26;;;;;;;10.32;7.32;;;;;;;8.43;62.63;95786.56;4916791;29;20056;-76
2024/02/27 01:18:54;;;;;;;10.63;6.72;;;;;;;8.38;62.35;95790.72;4916882;29;20107;-76
2024/02/27 01:21:22;;;;;;;10.57;6.53;;;;;;;8.36;62.61;95788.28;4916789;29;20059;-76
2024/02/27 01:23:49;;;;;;;9.48;6.47;;;;;;;8.34;62.45;95785.06;4916907;29;20058;-76
2024/02/27 01:26:18;;;;;;;10.73;7.03;;;;;;;8.36;64.20;95787.50;4916533;29;20058;-75
2024/02/27 01:28:45;;;;;;;10.32;6.75;;;;;;;8.37;65.07;95789.09;4920303;29;20115;-75
2024/02/27 01:31:13;;;;;;;9.23;7.38;;;;;;;8.40;63.62;95778.31;4938855;29;20059;-75
2024/02/27 01:33:40;;;;;;;14.88;8.13;;;;;;;8.36;62.64;95767.50;4937902;29;20048;-76
2024/02/27 01:36:08;;;;;;;10.80;6.80;;;;;;;8.32;61.98;95766.25;4933348;29;20530;-76
2024/02/27 01:38:36;;;;;;;10.65;6.90;;;;;;;8.30;64.09;95759.66;4918682;29;20066;-76
2024/02/27 01:41:04;;;;;;;10.30;7.15;;;;;;;8.27;63.39;95763.44;4919404;29;20048;-76
2024/02/27 01:43:33;;;;;;;9.82;7.60;;;;;;;8.34;68.14;95758.28;4918033;29;20104;-76
2024/02/27 01:46:10;;;;;;;11.23;7.50;;;;;;;8.43;70.85;95757.97;4917125;29;20052;-76
2024/02/27 01:48:37;;;;;;;12.18;8.15;;;;;;;8.46;69.05;95759.38;4917316;29;20200;-76
2024/02/27 01:51:05;;;;;;;10.55;8.00;;;;;;;8.49;69.53;95759.03;4916919;29;20083;-76
2024/02/27 01:53:34;;;;;;;11.98;7.93;;;;;;;8.50;69.70;95754.63;4917023;29;20079;-76
2024/02/27 01:56:02;;;;;;;10.73;7.63;;;;;;;8.49;66.86;95755.63;4916539;29;20477;-76
2024/02/27 01:58:30;;;;;;;12.30;8.27;;;;;;;8.41;69.37;95748.78;4916578;29;20063;-76
2024/02/27 02:01:02;;;;;;;9.82;7.25;;;;;;;8.41;68.60;95743.56;4916726;29;20052;-77
2024/02/27 02:03:35;;;;;;;11.63;8.48;;;;;;;8.42;71.53;95745.19;4916637;29;20059;-76
2024/02/27 02:06:04;;;;;;;12.18;7.53;;;;;;;8.41;68.94;95740.97;4917314;29;20079;-76
2024/02/27 02:08:33;;;;;;;11.35;8.25;;;;;;;8.43;70.85;95737.19;4917145;29;20439;-76
2024/02/27 02:11:01;;;;;;;10.45;7.70;;;;;;;8.43;66.36;95741.59;4917242;29;20085;-77
2024/02/27 02:13:28;;;;;;;11.63;8.65;;;;;;;8.36;69.32;95730.31;4917170;29;20136;-76
2024/02/27 02:15:56;;;;;;;11.15;7.63;;;;;;;8.34;69.02;95734.91;4916682;29;20056;-77
2024/02/27 02:18:25;;;;;;;11.27;7.93;;;;;;;8.37;70.25;95737.09;4916603;29;20056;-76
2024/02/27 02:20:54;;;;;;;12.05;8.13;;;;;;;8.42;70.23;95750.38;4916611;29;20432;-77
2024/02/27 02:23:22;;;;;;;16.88;9.45;;;;;;;8.46;71.05;95746.41;4916488;29;20052;-76
2024/02/27 02:25:51;;;;;;;11.93;8.07;;;;;;;8.43;67.16;95757.97;4916489;29;20059;-77
2024/02/27 02:28:18;;;;;;;12.77;8.95;;;;;;;8.39;67.15;95754.13;4917080;29;20136;-77
2024/02/27 02:30:46;;;;;;;11.65;8.60;;;;;;;8.38;69.18;95759.53;4917329;29;20091;-76
2024/02/27 02:33:13;;;;;;;12.23;8.80;;;;;;;8.36;68.49;95764.91;4917023;29;20056;-76
2024/02/27 02:35:43;;;;;;;11.27;8.30;;;;;;;8.33;65.88;95764.47;4917129;29;20056;-77
2024/02/27 02:38:12;;;;;;;15.05;9.85;;;;;;;8.31;67.99;95763.84;4916924;29;20056;-77
2024/02/27 02:40:40;;;;;;;15.50;9.43;;;;;;;8.33;69.24;95772.25;4917038;29;20087;-76
2024/02/27 02:43:07;;;;;;;12.15;8.65;;;;;;;8.37;68.84;95781.28;4917230;29;20052;-76
2024/02/27 02:45:35;;;;;;;13.20;8.82;;;;;;;8.39;70.09;95789.69;4917314;29;20056;-77
2024/02/27 02:48:03;;;;;;;13.77;10.20;;;;;;;8.40;71.30;95786.13;4917338;29;20147;-77
2024/02/27 02:50:31;;;;;;;12.20;8.43;;;;;;;8.39;70.26;95787.09;4917013;29;20052;-77
2024/02/27 02:52:59;;;;;;;15.25;8.98;;;;;;;8.33;68.46;95787.84;4917201;29;20480;-76
2024/02/27 02:55:28;;;;;;;13.50;9.02;;;;;;;8.32;70.81;95781.06;4916897;29;20104;-75
2024/02/27 02:57:56;;;;;;;13.20;9.93;;;;;;;8.37;72.24;95783.88;4920205;29;20143;-76
2024/02/27 03:00:23;;;;;;;12.88;8.93;;;;;;;8.40;71.51;95793.91;4920099;29;20143;-78
2024/02/27 03:02:51;;;;;;;15.02;9.75;;;;;;;8.35;71.84;95796.25;4920109;29;20058;-76
2024/02/27 03:05:18;;;;;;;13.10;9.13;;;;;;;8.32;68.68;95801.84;4920006;29;20143;-76
2024/02/27 03:07:46;;;;;;;13.05;9.32;;;;;;;8.27;66.51;95801.59;4920184;29;20052;-76
2024/02/27 03:10:14;;;;;;;13.65;9.10;;;;;;;8.25;69.74;95802.59;4919936;29;20048;-76
2024/02/27 03:12:43;;;;;;;14.07;9.40;;;;;;;8.16;65.71;95798.50;4929698;29;20048;-77
2024/02/27 03:15:11;;;;;;;13.35;10.35;;;;;;;8.11;66.16;95795.69;4938893;29;20048;-77
2024/02/27 03:17:39;;;;;;;12.70;9.05;;;;;;;8.14;69.63;95800.50;4935385;29;20135;-77
2024/02/27 03:20:09;;;;;;;13.88;9.63;;;;;;;8.16;68.78;95803.69;4922402;29;20082;-77
2024/02/27 03:22:37;;;;;;;13.07;9.25;;;;;;;8.09;66.82;95799.41;4920614;29;20052;-77
2024/02/27 03:25:05;;;;;;;15.10;9.95;;;;;;;8.04;66.52;95805.97;4919419;29;20127;-77
2024/02/27 03:27:33;;;;;;;15.13;9.32;;;;;;;8.08;69.46;95803.81;4919213;29;20095;-77
2024/02/27 03:30:03;;;;;;;13.23;9.13;;;;;;;8.11;66.35;95811.25;4919630;29;20052;-76
2024/02/27 03:32:30;;;;;;;13.90;9.93;;;;;;;8.10;66.48;95814.03;4919393;29;20052;-77
2024/02/27 03:34:58;;;;;;;14.80;10.18;;;;;;;8.13;69.52;95818.84;4919006;29;20079;-77
2024/02/27 03:37:26;;;;;;;13.82;10.02;;;;;;;8.15;70.54;95824.66;4919420;29;20142;-77
2024/02/27 03:39:53;;;;;;;15.32;10.77;;;;;;;8.15;69.14;95830.66;4919454;29;20086;-77
2024/02/27 03:42:21;;;;;;;15.30;9.68;;;;;;;8.07;66.20;95830.81;4919202;29;20048;-77
2024/02/27 03:44:49;;;;;;;14.30;9.57;;;;;;;8.02;68.47;95827.94;4919125;29;20494;-77
2024/02/27 03:47:18;;;;;;;13.95;10.50;;;;;;;8.01;66.88;95832.31;4919097;29;20064;-77
2024/02/27 03:49:45;;;;;;;12.63;9.55;;;;;;;8.00;66.13;95832.50;4919178;29;20052;-78
2024/02/27 03:52:13;;;;;;;15.88;11.40;;;;;;;8.01;69.13;95826.34;4919037;29;20473;-76
2024/02/27 03:54:40;;;;;;;19.48;9.68;;;;;;;8.00;67.22;95824.72;4918707;29;20584;-77
2024/02/27 03:57:09;;;;;;;15.35;10.35;;;;;;;7.97;69.10;95819.91;4918885;29;20067;-77
2024/02/27 03:59:37;;;;;;;16.20;10.88;;;;;;;7.94;68.37;95821.06;4918425;29;20131;-77
2024/02/27 04:02:06;;;;;;;14.88;10.82;;;;;;;7.91;69.24;95826.63;4919630;29;20484;-77
2024/02/27 04:04:35;;;;;;;19.88;10.93;;;;;;;7.88;68.87;95828.78;4918586;29;20079;-77
2024/02/27 04:07:03;;;;;;;15.63;11.13;;;;;;;7.88;71.24;95834.00;4918454;29;20052;-77
2024/02/27 04:09:31;;;;;;;14.93;10.65;;;;;;;7.86;68.32;95836.75;4917917;29;20083;-77
2024/02/27 04:11:59;;;;;;;17.40;11.77;;;;;;;7.86;71.07;95828.19;4918396;29;20138;-76
2024/02/27 04:14:26;;;;;;;19.23;12.38;;;;;;;7.90;72.12;95830.22;4918541;29;20132;-77
2024/02/27 04:16:54;;;;;;;18.05;12.55;;;;;;;7.91;72.47;95836.22;4918528;29;20052;-77
2024/02/27 04:19:21;;;;;;;15.48;11.38;;;;;;;7.88;70.74;95831.41;4917988;29;20496;-77
2024/02/27 04:21:51;;;;;;;17.48;11.18;;;;;;;7.82;69.51;95833.72;4918382;29;20055;-77
2024/02/27 04:24:18;;;;;;;18.60;12.48;;;;;;;7.82;70.95;95841.50;4918013;29;20052;-77
2024/02/27 04:26:46;;;;;;;15.63;11.55;;;;;;;7.83;70.84;95839.75;4918430;29;20084;-77
2024/02/27 04:29:13;;;;;;;19.40;12.23;;;;;;;7.78;69.86;95837.69;4918011;29;20052;-77
2024/02/27 04:31:44;;;;;;;19.50;11.88;;;;;;;7.73;70.06;95849.59;4918150;29;20406;-77
2024/02/27 04:34:12;;;;;;;16.25;10.50;;;;;;;7.70;68.52;95844.78;4917924;29;20101;-77
2024/02/27 04:36:45;;;;;;;17.38;12.35;;;;;;;7.63;67.61;95853.28;4917813;29;20052;-77
2024/02/27 04:39:14;;;;;;;17.98;12.10;;;;;;;7.62;67.33;95853.47;4917964;29;20086;-77
2024/02/27 04:41:42;;;;;;;20.73;13.10;;;;;;;7.62;68.05;95858.66;4917818;29;20483;-77
2024/02/27 04:44:11;;;;;;;20.25;12.45;;;;;;;7.59;67.84;95864.22;4917630;29;20126;-77
2024/02/27 04:46:39;;;;;;;20.77;12.85;;;;;;;7.59;67.00;95861.63;4917680;29;20052;-77
2024/02/27 04:49:06;;;;;;;15.68;10.90;;;;;;;7.57;66.94;95869.59;4917716;29;20099;-77
2024/02/27 04:51:34;;;;;;;20.08;13.15;;;;;;;7.55;66.17;95862.97;4917728;29;20063;-77
2024/02/27 04:54:02;;;;;;;19.13;12.45;;;;;;;7.52;66.31;95879.72;4917710;29;20048;-78
2024/02/27 04:56:31;;;;;;;20.67;13.27;;;;;;;7.52;70.06;95873.69;4917452;29;20183;-77
2024/02/27 04:58:58;;;;;;;17.58;11.93;;;;;;;7.52;67.93;95879.72;4917423;29;20527;-77
2024/02/27 05:01:26;;;;;;;19.23;11.77;;;;;;;7.55;68.83;95884.53;4917813;29;20603;-77
2024/02/27 05:03:54;;;;;;;16.73;11.60;;;;;;;7.54;67.52;95885.53;4917378;29;20063;-77
2024/02/27 05:06:21;;;;;;;18.55;11.43;;;;;;;7.54;66.79;95887.28;4917721;29;20063;-77
2024/02/27 05:08:49;;;;;;;17.83;12.75;;;;;;;7.58;70.30;95891.16;4917767;29;20508;-77
2024/02/27 05:11:16;;;;;;;18.70;12.15;;;;;;;7.61;68.11;95896.00;4918086;29;20115;-77
2024/02/27 05:13:45;;;;;;;18.88;12.32;;;;;;;7.60;67.23;95900.34;4917376;29;20052;-77
2024/02/27 05:16:13;;;;;;;17.10;11.52;;;;;;;7.60;67.07;95902.94;4918563;29;20309;-78
2024/02/27 05:18:40;;;;;;;17.67;12.20;;;;;;;7.64;70.08;95908.59;4917702;29;20512;-77
2024/02/27 05:21:08;;;;;;;21.08;13.82;;;;;;;7.70;72.00;95912.28;4924762;29;20048;-77
2024/02/27 05:23:36;;;;;;;18.15;11.32;;;;;;;7.71;69.19;95914.66;4931752;29;20050;-78
2024/02/27 05:26:04;;;;;;;16.45;12.05;;;;;;;7.74;70.98;95914.31;4924250;29;20139;-77
2024/02/27 05:28:31;;;;;;;17.65;11.25;;;;;;;7.81;69.70;95917.00;4921035;29;20044;-77
2024/02/27 05:31:01;;;;;;;16.77;11.65;;;;;;;7.76;66.92;95922.75;4925830;29;20759;-77
2024/02/27 05:33:28;;;;;;;16.27;10.68;;;;;;;7.70;65.79;95918.25;4930786;29;20139;-78
2024/02/27 05:35:56;;;;;;;14.77;10.55;;;;;;;7.62;65.14;95918.34;4926594;29;20056;-78
2024/02/27 05:38:24;;;;;;;16.83;10.98;;;;;;;7.59;65.46;95929.09;4919255;29;20048;-78
2024/02/27 05:40:51;;;;;;;16.75;11.38;;;;;;;7.57;64.71;95928.47;4917057;29;20116;-77
2024/02/27 05:43:19;;;;;;;16.17;10.90;;;;;;;7.50;64.38;95932.75;4916590;29;20496;-77
2024/02/27 05:45:46;;;;;;;17.63;11.07;;;;;;;7.45;65.28;95930.69;4916545;29;20062;-77
2024/02/27 05:48:15;;;;;;;17.30;11.70;;;;;;;7.41;64.70;95939.81;4916924;29;20428;-77
2024/02/27 05:50:43;;;;;;;17.17;10.15;;;;;;;7.40;64.63;95954.59;4916848;29;20075;-77
2024/02/27 05:53:11;;;;;;;18.30;11.73;;;;;;;7.41;67.25;95961.41;4916841;29;20147;-77
2024/02/27 05:55:38;;;;;;;20.98;11.98;;;;;;;7.45;66.27;95956.63;4916697;29;20071;-77
2024/02/27 05:58:06;;;;;;;18.38;11.65;;;;;;;7.49;65.85;95967.47;4918498;29;20115;-77
2024/02/27 06:00:34;;;;;;;14.85;10.70;;;;;;;7.54;68.59;95967.75;4918834;29;20108;-77
2024/02/27 06:03:01;;;;;;;18.85;13.30;;;;;;;7.61;71.25;95963.47;4931009;29;20036;-77
2024/02/27 06:05:30;;;;;;;17.55;12.57;;;;;;;7.72;70.50;95969.97;4937693;29;20056;-77
2024/02/27 06:07:58;;;;;;;17.58;11.90;;;;;;;7.74;71.08;95971.44;4931405;29;20107;-77
2024/02/27 06:10:25;;;;;;;19.40;13.13;;;;;;;7.81;72.39;95971.53;4917186;29;20108;-77
2024/02/27 06:12:53;;;;;;;18.95;12.88;;;;;;;7.82;71.64;95979.13;4916848;29;20056;-77
2024/02/27 06:15:20;;;;;;;19.75;12.88;;;;;;;7.83;71.60;95974.75;4916658;29;20048;-78
2024/02/27 06:17:48;;;;;;;19.15;13.30;;;;;;;7.84;70.49;95979.75;4916484;29;20048;-77
2024/02/27 06:22:58;;;;;;;16.88;12.02;;;;;;;7.73;66.64;95989.78;4916139;29;20055;-77
2024/02/27 06:25:26;;;;;;;24.60;12.80;;;;;;;7.72;67.81;96001.13;4916400;29;20048;-77
2024/02/27 06:27:53;;;;;;;17.52;13.18;;;;;;;7.75;70.61;96001.59;4917010;29;20063;-77
2024/02/27 06:30:21;;;;;;;20.25;13.95;;;;;;;7.83;72.42;96004.13;4916336;29;20568;-77
2024/02/27 06:32:48;;;;;;;20.02;13.43;;;;;;;7.90;73.11;95999.00;4919507;29;20056;-77
2024/02/27 06:35:16;;;;;;;19.00;13.93;;;;;;;7.92;71.38;96015.22;4920053;29;20075;-77
2024/02/27 06:37:44;;;;;;;18.83;13.20;;;;;;;7.84;68.00;96012.69;4920168;29;20079;-77
2024/02/27 06:40:13;;;;;;;19.73;13.85;;;;;;;7.72;66.61;96014.94;4920652;29;20063;-77
2024/02/27 06:42:41;;;;;;;19.02;12.80;;;;;;;7.60;66.51;96022.34;4920113;29;20249;-77
2024/02/27 06:45:10;;;;;;;18.02;12.55;;;;;;;7.57;67.40;96032.28;4919668;29;20108;-77
2024/02/27 06:47:38;;;;;;;21.67;14.63;;;;;;;7.59;70.70;96038.13;4929201;29;20052;-77
2024/02/27 06:50:08;;;;;;;19.20;13.65;;;;;;;7.62;69.82;96041.16;4931673;29;20048;-78
2024/02/27 06:52:35;;;;;;;20.83;14.68;;;;;;;7.58;67.56;96044.28;4927644;29;20432;-77
2024/02/27 06:55:04;;;;;;;21.33;15.60;;;;;;;7.55;67.51;96049.84;4920354;29;20086;-77
2024/02/27 06:57:33;;;;;;;19.92;14.52;;;;;;;7.57;68.02;96047.88;4924722;29;20119;-77
2024/02/27 07:00:00;;;;;;;22.77;15.27;;;;;;;7.61;68.82;96051.72;4945412;23;20083;-80
2024/02/27 07:02:28;;;;;;;24.52;16.00;;;;;;;7.60;69.36;96053.50;4919658;29;20052;-80
2024/02/27 07:04:56;;;;;;;28.13;18.92;;;;;;;7.62;69.56;96051.53;4919489;29;20048;-80
2024/02/27 07:07:23;;;;;;;27.52;18.20;;;;;;;7.63;69.14;96057.53;4919542;29;20106;-79
2024/02/27 07:09:51;;;;;;;35.65;23.02;;;;;;;7.67;70.32;96048.41;4919216;29;20072;-79
2024/02/27 07:12:18;;;;;;;21.17;15.48;;;;;;;7.65;68.50;96045.16;4919027;29;20056;-80
2024/02/27 07:14:48;;;;;;;20.10;14.38;;;;;;;7.61;68.48;96054.31;4918814;29;20568;-78
2024/02/27 07:17:16;;;;;;;21.33;15.02;;;;;;;7.62;70.28;96046.34;4919186;29;20143;-80
2024/02/27 07:19:44;;;;;;;18.42;13.57;;;;;;;7.63;68.84;96042.78;4919050;29;20056;-80
2024/02/27 07:22:12;;;;;;;19.95;14.52;;;;;;;7.63;69.24;96041.94;4918925;29;20526;-80
2024/02/27 07:24:39;;;;;;;22.52;15.00;;;;;;;7.64;68.64;96040.97;4918428;29;20596;-79
2024/02/27 07:27:07;;;;;;;22.42;15.45;;;;;;;7.56;69.21;96041.06;4918768;29;20116;-80
2024/02/27 07:29:35;;;;;;;21.27;14.98;;;;;;;7.57;70.06;96042.69;4918768;29;20484;-80
2024/02/27 07:32:04;;;;;;;24.10;15.20;;;;;;;7.60;69.14;96037.91;4918462;29;20099;-78
2024/02/27 07:34:31;;;;;;;62.20;38.95;;;;;;;7.65;71.05;96034.78;4918715;29;20063;-77
2024/02/27 07:37:01;;;;;;;29.73;18.55;;;;;;;7.66;69.69;96033.81;4918642;29;20135;-78
2024/02/27 07:39:28;;;;;;;23.65;14.95;;;;;;;7.63;68.37;96036.75;4918887;29;20103;-77
2024/02/27 07:41:56;;;;;;;20.70;15.60;;;;;;;7.59;69.13;96031.13;4918451;29;20083;-77
2024/02/27 07:44:23;;;;;;;21.20;15.20;;;;;;;7.62;68.36;96035.97;4917598;29;20131;-78
2024/02/27 07:46:51;;;;;;;28.30;16.80;;;;;;;7.60;67.71;96031.94;4918719;29;20075;-78
2024/02/27 07:49:20;;;;;;;22.95;15.38;;;;;;;7.53;67.62;96042.22;4918538;29;20495;-80
2024/02/27 07:51:48;;;;;;;23.42;15.65;;;;;;;7.52;69.69;96042.38;4918433;29;20123;-80
2024/02/27 07:54:16;;;;;;;21.80;16.17;;;;;;;7.52;68.47;96037.19;4918208;29;20044;-80
2024/02/27 07:56:44;;;;;;;22.17;15.45;;;;;;;7.49;67.84;96032.34;4918105;29;20103;-80
2024/02/27 07:59:11;;;;;;;25.33;16.48;;;;;;;7.42;67.98;96035.66;4918086;29;20083;-80
2024/02/27 08:01:40;;;;;;;28.33;17.55;;;;;;;7.38;68.10;96039.56;4918346;29;20056;-80
2024/02/27 08:04:08;;;;;;;21.73;15.48;;;;;;;7.35;69.43;96036.53;4918149;29;20052;-80
2024/02/27 08:06:39;;;;;;;26.42;17.15;;;;;;;7.38;71.53;96029.19;4917952;29;20508;-80
2024/02/27 08:09:10;;;;;;;24.17;16.20;;;;;;;7.38;70.28;96029.19;4917912;29;20496;-80
2024/02/27 08:11:37;;;;;;;22.65;16.15;;;;;;;7.38;70.52;96028.41;4918858;29;20534;-79
2024/02/27 08:14:05;;;;;;;26.50;16.17;;;;;;;7.41;70.26;96028.88;4918052;29;20493;-80
2024/02/27 08:16:32;;;;;;;26.63;16.38;;;;;;;7.47;70.12;96037.72;4918250;29;20052;-80
2024/02/27 08:19:04;;;;;;;26.13;16.58;;;;;;;7.52;69.82;96034.59;4917874;29;20493;-80
2024/02/27 08:21:32;;;;;;;29.00;17.53;;;;;;;7.57;70.94;96037.47;4918198;29;20048;-78
2024/02/27 08:24:02;;;;;;;23.55;16.75;;;;;;;7.64;71.95;96046.16;4918058;29;20056;-77
2024/02/27 08:26:30;;;;;;;24.42;17.35;;;;;;;7.67;70.51;96053.59;4917851;29;20123;-80
2024/02/27 08:28:58;;;;;;;23.92;17.42;;;;;;;7.68;69.93;96059.63;4925356;29;20052;-80
2024/02/27 08:31:25;;;;;;;26.42;17.45;;;;;;;7.72;71.53;96055.66;4927716;29;20108;-80
2024/02/27 08:33:53;;;;;;;23.10;15.85;;;;;;;7.74;69.91;96059.72;4921306;29;20100;-80
2024/02/27 08:36:21;;;;;;;22.05;15.65;;;;;;;7.75;69.04;96082.09;4917774;29;20592;-80
2024/02/27 08:38:48;;;;;;;25.85;16.85;;;;;;;7.73;68.68;96083.25;4918050;29;20152;-80
2024/02/27 08:41:20;;;;;;;22.60;14.43;;;;;;;7.69;68.21;96080.19;4917655;29;20583;-80
2024/02/27 08:43:49;;;;;;;22.48;14.45;;;;;;;7.69;68.74;96077.59;4917865;29;20521;-80
2024/02/27 08:46:18;;;;;;;22.02;14.80;;;;;;;7.69;68.26;96085.38;4917634;29;20052;-80
2024/02/27 08:48:45;;;;;;;25.00;14.40;;;;;;;7.69;67.91;96087.97;4917445;29;20588;-79
2024/02/27 08:51:13;;;;;;;22.73;14.40;;;;;;;7.68;68.31;96085.56;4917593;29;20048;-80
2024/02/27 08:53:41;;;;;;;18.98;13.45;;;;;;;7.68;68.44;96086.38;4917666;29;20051;-79
2024/02/27 08:56:09;;;;;;;21.30;15.55;;;;;;;7.70;68.15;96084.41;4919604;29;20082;-80
2024/02/27 08:58:38;;;;;;;22.90;14.93;;;;;;;7.71;67.95;96080.81;4928366;29;20416;-80
2024/02/27 09:01:05;;;;;;;26.05;14.63;;;;;;;7.70;68.10;96074.03;4917755;29;20138;-79
2024/02/27 09:03:34;;;;;;;23.00;15.02;;;;;;;7.72;67.95;96071.22;4917456;29;20480;-80
2024/02/27 09:06:02;;;;;;;21.88;14.85;;;;;;;7.72;68.23;96066.88;4917237;29;20052;-80
2024/02/27 09:08:30;;;;;;;24.52;14.98;;;;;;;7.75;67.89;96076.88;4917701;29;20114;-80
2024/02/27 09:10:58;;;;;;;21.85;15.48;;;;;;;7.79;69.77;96078.16;4917644;29;20056;-80
2024/02/27 09:13:26;;;;;;;21.70;14.23;;;;;;;7.81;68.74;96081.38;4917122;29;20135;-80
2024/02/27 09:15:55;;;;;;;19.63;13.63;;;;;;;7.82;68.30;96077.78;4916779;29;20052;-80
2024/02/27 09:18:22;;;;;;;21.75;14.07;;;;;;;7.84;68.65;96091.41;4917224;29;20424;-80
2024/02/27 09:20:50;;;;;;;17.10;13.02;;;;;;;7.88;68.33;96086.66;4917137;29;20056;-80
2024/02/27 09:23:19;;;;;;;19.38;12.70;;;;;;;7.89;68.44;96096.06;4917000;29;20139;-80
2024/02/27 09:25:46;;;;;;;20.00;13.32;;;;;;;7.92;68.16;96100.13;4917112;29;20103;-80
2024/02/27 09:28:14;;;;;;;20.10;13.40;;;;;;;7.91;67.95;96095.88;4917071;29;20516;-80
2024/02/27 09:30:42;;;;;;;17.92;13.52;;;;;;;7.92;68.21;96092.31;4916744;29;20112;-79
2024/02/27 09:33:11;;;;;;;18.30;12.38;;;;;;;7.97;68.31;96098.59;4917483;29;20501;-80
2024/02/27 09:35:38;;;;;;;18.95;12.90;;;;;;;8.03;68.08;96091.88;4917233;29;20064;-79
2024/02/27 09:38:06;;;;;;;20.13;13.73;;;;;;;8.06;67.81;96094.13;4917079;29;20048;-79
2024/02/27 09:40:34;;;;;;;17.45;12.65;;;;;;;8.11;68.91;96084.03;4916786;29;20135;-80
2024/02/27 09:43:02;;;;;;;18.30;12.93;;;;;;;8.16;68.06;96083.47;4916404;29;20112;-80
2024/02/27 09:45:31;;;;;;;22.40;13.70;;;;;;;8.17;67.82;96078.09;4916296;29;20572;-79
2024/02/27 09:48:02;;;;;;;19.20;12.85;;;;;;;8.19;67.86;96089.09;4916558;29;20135;-80
2024/02/27 09:50:34;;;;;;;17.88;12.95;;;;;;;8.22;67.42;96080.13;4916462;29;20048;-80
2024/02/27 09:53:03;;;;;;;18.75;12.25;;;;;;;8.28;67.47;96083.81;4916472;29;20056;-80
2024/02/27 09:55:31;;;;;;;19.50;12.68;;;;;;;8.32;67.23;96083.28;4916717;29;20393;-80
2024/02/27 09:57:59;;;;;;;18.95;13.60;;;;;;;8.37;67.09;96086.13;4916529;29;20074;-80
2024/02/27 10:00:27;;;;;;;17.67;12.02;;;;;;;8.41;66.98;96086.63;4929742;29;20063;-80
2024/02/27 10:02:56;;;;;;;17.40;13.10;;;;;;;8.42;66.63;96090.84;4938853;29;20062;-80
2024/02/27 10:05:23;;;;;;;20.75;14.43;;;;;;;8.41;66.63;96091.81;4938331;29;20040;-80
2024/02/27 10:07:52;;;;;;;22.48;13.85;;;;;;;8.42;66.38;96090.84;4934387;29;20052;-80
2024/02/27 10:10:20;;;;;;;19.40;13.32;;;;;;;8.41;66.25;96092.63;4916801;29;20055;-79
2024/02/27 10:12:48;;;;;;;22.40;13.27;;;;;;;8.43;66.53;96093.25;4916669;29;20108;-80
2024/02/27 10:15:15;;;;;;;18.35;13.60;;;;;;;8.48;67.63;96095.31;4916677;29;20060;-80
2024/02/27 10:17:44;;;;;;;19.35;13.57;;;;;;;8.53;67.70;96112.97;4916372;29;20048;-80
2024/02/27 10:20:13;;;;;;;18.50;13.23;;;;;;;8.57;66.79;96112.44;4916383;29;20056;-80
2024/02/27 10:22:41;;;;;;;19.95;13.95;;;;;;;8.55;66.22;96109.22;4916333;29;20464;-79
2024/02/27 10:25:14;;;;;;;20.42;13.77;;;;;;;8.56;66.10;96110.00;4916086;29;20501;-80
2024/02/27 10:27:42;;;;;;;25.13;13.68;;;;;;;8.57;65.98;96117.63;4916038;29;20044;-80
2024/02/27 10:30:11;;;;;;;19.55;13.20;;;;;;;8.54;66.13;96123.19;4915909;29;20056;-80
2024/02/27 10:32:40;;;;;;;19.50;13.48;;;;;;;8.53;66.02;96121.59;4916173;29;20048;-80
2024/02/27 10:35:09;;;;;;;20.73;13.57;;;;;;;8.55;65.91;96116.19;4916073;29;20044;-80
2024/02/27 10:37:38;;;;;;;20.85;13.70;;;;;;;8.56;65.87;96110.81;4915914;29;20560;-79
2024/02/27 10:40:07;;;;;;;21.75;14.73;;;;;;;8.56;66.06;96110.81;4916021;29;20056;-80
2024/02/27 10:42:40;;;;;;;19.38;13.65;;;;;;;8.56;66.03;96110.81;4916368;29;20520;-80
2024/02/27 10:45:09;;;;;;;19.95;13.85;;;;;;;8.59;66.10;96113.06;4916167;29;20112;-80
2024/02/27 10:47:36;;;;;;;20.50;13.75;;;;;;;8.61;66.13;96113.66;4915988;29;20083;-80
2024/02/27 10:50:06;;;;;;;18.15;13.57;;;;;;;8.65;66.42;96112.31;4916278;29;20158;-79
2024/02/27 10:52:35;;;;;;;20.65;13.50;;;;;;;8.70;66.24;96116.16;4915950;29;20048;-80
2024/02/27 10:55:03;;;;;;;18.60;12.48;;;;;;;8.72;65.99;96119.41;4915303;29;20052;-80
2024/02/27 10:57:33;;;;;;;21.65;13.95;;;;;;;8.75;65.75;96117.25;4915702;29;20076;-80
2024/02/27 11:00:04;;;;;;;19.30;12.93;;;;;;;8.78;65.57;96116.06;4915861;29;20071;-80
2024/02/27 11:02:38;;;;;;;19.20;13.48;;;;;;;8.78;65.71;96111.69;4915830;29;20083;-80
2024/02/27 11:05:06;;;;;;;19.77;14.02;;;;;;;8.81;65.60;96113.94;4924665;29;20087;-80
2024/02/27 11:07:35;;;;;;;18.30;13.88;;;;;;;8.86;65.44;96119.38;4920152;29;20059;-80
2024/02/27 11:10:04;;;;;;;21.30;13.05;;;;;;;8.91;66.43;96118.03;4915610;29;20048;-79
2024/02/27 11:12:36;;;;;;;21.67;14.52;;;;;;;8.95;65.42;96120.06;4915621;29;20056;-80
2024/02/27 11:15:09;;;;;;;20.98;13.82;;;;;;;8.96;65.25;96121.69;4915695;29;20052;-80
2024/02/27 11:17:40;;;;;;;19.50;12.75;;;;;;;8.99;65.01;96121.31;4916413;29;20497;-79
2024/02/27 11:20:08;;;;;;;22.10;12.77;;;;;;;9.03;65.33;96125.19;4919090;29;20409;-80
2024/02/27 11:22:37;;;;;;;18.17;12.80;;;;;;;9.07;65.19;96129.03;4918903;29;20055;-80
2024/02/27 11:25:06;;;;;;;20.65;14.23;;;;;;;9.13;65.10;96129.28;4918724;29;20564;-80
2024/02/27 11:27:36;;;;;;;18.75;13.85;;;;;;;9.17;64.90;96133.94;4919109;29;20244;-80
2024/02/27 11:30:07;;;;;;;19.50;13.52;;;;;;;9.22;64.61;96141.19;4918812;29;20052;-80
2024/02/27 11:32:36;;;;;;;18.35;13.73;;;;;;;9.24;64.84;96139.19;4918578;29;20060;-80
2024/02/27 11:35:09;;;;;;;20.08;12.95;;;;;;;9.26;64.50;96143.22;4918477;29;20100;-80
2024/02/27 11:37:37;;;;;;;20.60;13.73;;;;;;;9.27;64.14;96144.84;4918781;29;20139;-80